| time (UTC) | temp F | wind direction | speed knots | gust knots | rain 1hr in | rain 24hr in | rain mn in | humidity % | barometer mb |
| 20260508000903 | 47 | 57 | 0.0 | 0.9 | 0.00 | 0.00 | 0.00 | 85 | 1009.8 |
| 20260508000003 | 47 | 0 | 0.0 | 0.0 | 0.00 | 0.00 | 0.00 | 84 | 1009.8 |
| 20260507235403 | 47 | 0 | 0.0 | 0.0 | 0.00 | 0.00 | 0.00 | 83 | 1009.7 |
| 20260507234524 | 47 | 34 | 0.0 | 0.9 | 0.00 | 0.00 | 0.00 | 82 | 1009.8 |
| 20260507233603 | 48 | 158 | 0.0 | 0.9 | 0.00 | 0.00 | 0.00 | 81 | 1009.7 |
| 20260507232703 | 49 | 165 | 0.0 | 2.6 | 0.00 | 0.00 | 0.00 | 80 | 1009.6 |
| 20260507231803 | 49 | 174 | 0.0 | 2.6 | 0.00 | 0.00 | 0.00 | 79 | 1009.5 |
| 20260507230903 | 50 | 178 | 0.0 | 1.7 | 0.00 | 0.00 | 0.00 | 78 | 1009.5 |
| 20260507230003 | 50 | 163 | 0.0 | 1.7 | 0.00 | 0.00 | 0.00 | 78 | 1009.4 |
| 20260507225403 | 50 | 170 | 0.0 | 2.6 | 0.00 | 0.00 | 0.00 | 77 | 1009.4 |
| 20260507224504 | 51 | 170 | 0.9 | 3.5 | 0.00 | 0.00 | 0.00 | 76 | 1009.4 |
| 20260507223624 | 50 | 181 | 0.9 | 3.5 | 0.00 | 0.00 | 0.00 | 77 | 1009.3 |
| 20260507222703 | 50 | 144 | 0.0 | 0.9 | 0.00 | 0.00 | 0.00 | 78 | 1009.3 |
| 20260507221824 | 50 | 210 | 0.0 | 0.9 | 0.00 | 0.00 | 0.00 | 77 | 1009.6 |
| 20260507220903 | 51 | 168 | 0.0 | 1.7 | 0.00 | 0.00 | 0.00 | 76 | 1009.1 |
| 20260507220003 | 51 | 189 | 0.0 | 0.9 | 0.00 | 0.00 | 0.00 | 76 | 1009.2 |
| 20260507215403 | 51 | 171 | 0.9 | 5.2 | 0.00 | 0.00 | 0.00 | 75 | 1009.3 |
| 20260507214503 | 52 | 190 | 0.9 | 5.2 | 0.00 | 0.00 | 0.00 | 74 | 1009.3 |
| 20260507213624 | 52 | 214 | 0.9 | 2.6 | 0.00 | 0.00 | 0.00 | 74 | 1009.2 |
| 20260507212724 | 51 | 211 | 0.9 | 2.6 | 0.00 | 0.00 | 0.00 | 75 | 1009.0 |
| 20260507211803 | 51 | 220 | 0.9 | 2.6 | 0.00 | 0.00 | 0.00 | 76 | 1009.0 |
| 20260507210903 | 51 | 200 | 0.0 | 2.6 | 0.00 | 0.00 | 0.00 | 76 | 1009.0 |
| 20260507210003 | 51 | 243 | 0.0 | 2.6 | 0.00 | 0.00 | 0.00 | 76 | 1009.0 |
| 20260507205403 | 51 | 195 | 0.0 | 1.7 | 0.00 | 0.00 | 0.00 | 76 | 1008.8 |
| 20260507204524 | 52 | 200 | 0.0 | 0.9 | 0.00 | 0.00 | 0.00 | 75 | 1008.7 |
| 20260507203603 | 52 | 176 | 0.0 | 1.7 | 0.00 | 0.00 | 0.00 | 75 | 1008.6 |
| 20260507202703 | 51 | 176 | 0.0 | 1.7 | 0.00 | 0.00 | 0.00 | 76 | 1008.5 |
| 20260507201803 | 52 | 181 | 0.0 | 0.9 | 0.00 | 0.00 | 0.00 | 75 | 1008.3 |
| 20260507200903 | 52 | 193 | 0.0 | 0.9 | 0.00 | 0.00 | 0.00 | 74 | 1008.4 |
| 20260507200003 | 52 | 186 | 0.0 | 1.7 | 0.00 | 0.00 | 0.00 | 74 | 1008.5 |
| 20260507195403 | 52 | 199 | 0.9 | 1.7 | 0.00 | 0.00 | 0.00 | 74 | 1008.3 |
| 20260507194503 | 53 | 200 | 0.9 | 2.6 | 0.00 | 0.00 | 0.00 | 73 | 1008.1 |
| 20260507193603 | 53 | 187 | 0.0 | 1.7 | 0.00 | 0.00 | 0.00 | 72 | 1008.0 |
| 20260507192703 | 54 | 183 | 0.0 | 0.9 | 0.00 | 0.00 | 0.00 | 72 | 1008.2 |
| 20260507191824 | 54 | 182 | 0.0 | 0.9 | 0.00 | 0.00 | 0.00 | 71 | 1008.2 |
| 20260507190903 | 55 | 184 | 0.9 | 3.5 | 0.00 | 0.00 | 0.00 | 71 | 1008.1 |
| 20260507190004 | 55 | 194 | 0.9 | 2.6 | 0.00 | 0.00 | 0.00 | 70 | 1007.9 |
| 20260507185424 | 55 | 194 | 0.9 | 1.7 | 0.00 | 0.00 | 0.00 | 70 | 1008.0 |
| 20260507184503 | 55 | 183 | 0.9 | 3.5 | 0.00 | 0.00 | 0.00 | 70 | 1007.7 |
| 20260507183603 | 55 | 192 | 0.9 | 2.6 | 0.00 | 0.00 | 0.00 | 69 | 1007.7 |
| 20260507182703 | 56 | 194 | 0.9 | 3.5 | 0.00 | 0.00 | 0.00 | 68 | 1007.5 |
| 20260507181803 | 56 | 210 | 0.9 | 1.7 | 0.00 | 0.00 | 0.00 | 67 | 1007.6 |
| 20260507180903 | 56 | 203 | 0.0 | 0.9 | 0.00 | 0.00 | 0.00 | 68 | 1007.5 |
| 20260507180003 | 56 | 200 | 0.9 | 2.6 | 0.00 | 0.00 | 0.00 | 68 | 1007.5 |
| 20260507175403 | 56 | 205 | 0.9 | 1.7 | 0.00 | 0.00 | 0.00 | 68 | 1007.5 |
| 20260507174503 | 56 | 204 | 1.7 | 7.0 | 0.00 | 0.00 | 0.00 | 71 | 1007.5 |
| 20260507173603 | 56 | 186 | 0.9 | 2.6 | 0.00 | 0.00 | 0.00 | 71 | 1007.5 |
| 20260507172703 | 56 | 202 | 0.9 | 2.6 | 0.00 | 0.00 | 0.00 | 71 | 1007.3 |
| 20260507171803 | 56 | 197 | 0.9 | 3.5 | 0.00 | 0.00 | 0.00 | 71 | 1007.3 |
| 20260507170903 | 56 | 183 | 0.9 | 2.6 | 0.00 | 0.00 | 0.00 | 73 | 1007.5 |
| 20260507170003 | 56 | 223 | 0.9 | 2.6 | 0.00 | 0.00 | 0.00 | 73 | 1007.6 |
| 20260507165403 | 55 | 226 | 1.7 | 7.0 | 0.00 | 0.00 | 0.00 | 73 | 1007.6 |
| 20260507164503 | 55 | 201 | 1.7 | 3.5 | 0.00 | 0.00 | 0.00 | 71 | 1007.5 |
| 20260507163603 | 55 | 204 | 1.7 | 6.1 | 0.00 | 0.00 | 0.00 | 71 | 1007.6 |
| 20260507162724 | 55 | 210 | 2.6 | 7.0 | 0.00 | 0.00 | 0.00 | 78 | 1007.7 |
| 20260507161803 | 55 | 229 | 1.7 | 6.1 | 0.00 | 0.00 | 0.00 | 79 | 1007.8 |
| 20260507160903 | 55 | 209 | 1.7 | 7.8 | 0.00 | 0.00 | 0.00 | 79 | 1007.7 |
| 20260507160003 | 55 | 210 | 1.7 | 6.1 | 0.00 | 0.00 | 0.00 | 78 | 1007.9 |
| 20260507155403 | 56 | 219 | 2.6 | 6.1 | 0.00 | 0.00 | 0.00 | 76 | 1007.8 |
| 20260507154503 | 56 | 209 | 2.6 | 7.8 | 0.00 | 0.00 | 0.00 | 76 | 1007.7 |
| 20260507153624 | 57 | 197 | 2.6 | 7.8 | 0.00 | 0.00 | 0.00 | 75 | 1007.8 |
| 20260507152703 | 57 | 199 | 2.6 | 8.7 | 0.00 | 0.00 | 0.00 | 76 | 1007.8 |
| 20260507151803 | 57 | 189 | 1.7 | 6.1 | 0.00 | 0.00 | 0.00 | 75 | 1007.9 |
| 20260507150924 | 56 | 214 | 1.7 | 7.8 | 0.00 | 0.00 | 0.00 | 75 | 1007.8 |
| 20260507150024 | 57 | 197 | 1.7 | 7.8 | 0.00 | 0.00 | 0.00 | 73 | 1007.7 |
| 20260507145403 | 57 | 205 | 1.7 | 5.2 | 0.00 | 0.00 | 0.00 | 72 | 1008.0 |
| 20260507144503 | 57 | 202 | 1.7 | 5.2 | 0.00 | 0.00 | 0.00 | 71 | 1008.0 |
| 20260507143624 | 57 | 214 | 0.9 | 2.6 | 0.00 | 0.00 | 0.00 | 72 | 1008.2 |
| 20260507142703 | 56 | 212 | 1.7 | 5.2 | 0.00 | 0.00 | 0.00 | 73 | 1008.1 |
| 20260507141803 | 57 | 190 | 0.9 | 6.1 | 0.00 | 0.00 | 0.00 | 71 | 1008.2 |
| 20260507140903 | 56 | 193 | 1.7 | 5.2 | 0.00 | 0.00 | 0.00 | 69 | 1008.2 |
| 20260507140003 | 57 | 187 | 1.7 | 3.5 | 0.00 | 0.00 | 0.00 | 67 | 1008.3 |
| 20260507135403 | 57 | 213 | 1.7 | 6.1 | 0.00 | 0.00 | 0.00 | 66 | 1008.3 |
| 20260507134503 | 56 | 180 | 1.7 | 6.1 | 0.00 | 0.00 | 0.00 | 67 | 1008.3 |
| 20260507133603 | 56 | 189 | 1.7 | 5.2 | 0.00 | 0.00 | 0.00 | 73 | 1008.4 |
| 20260507132724 | 57 | 191 | 1.7 | 5.2 | 0.00 | 0.00 | 0.00 | 72 | 1008.2 |
| 20260507131824 | 56 | 234 | 1.7 | 5.2 | 0.00 | 0.00 | 0.00 | 74 | 1008.3 |
| 20260507130903 | 56 | 198 | 2.6 | 6.1 | 0.00 | 0.00 | 0.00 | 74 | 1008.3 |
| 20260507130003 | 58 | 225 | 1.7 | 7.0 | 0.00 | 0.00 | 0.00 | 70 | 1008.4 |
| 20260507125403 | 57 | 204 | 1.7 | 7.0 | 0.00 | 0.00 | 0.00 | 69 | 1008.4 |
| 20260507124503 | 58 | 202 | 2.6 | 6.1 | 0.00 | 0.00 | 0.00 | 67 | 1008.6 |
| 20260507123603 | 59 | 229 | 2.6 | 6.1 | 0.00 | 0.00 | 0.00 | 66 | 1008.4 |
| 20260507122705 | 60 | 203 | 2.6 | 6.1 | 0.00 | 0.00 | 0.00 | 62 | 1008.4 |
| 20260507121803 | 59 | 219 | 2.6 | 6.1 | 0.00 | 0.00 | 0.00 | 63 | 1008.5 |
| 20260507120903 | 59 | 214 | 2.6 | 6.1 | 0.00 | 0.00 | 0.00 | 63 | 1008.4 |
| 20260507120004 | 59 | 220 | 2.6 | 6.1 | 0.00 | 0.00 | 0.00 | 64 | 1008.6 |
| 20260507115424 | 59 | 240 | 2.6 | 6.1 | 0.00 | 0.00 | 0.00 | 65 | 1008.6 |
| 20260507114503 | 59 | 225 | 2.6 | 7.0 | 0.00 | 0.00 | 0.00 | 67 | 1008.5 |
| 20260507113603 | 58 | 235 | 2.6 | 7.0 | 0.00 | 0.00 | 0.00 | 68 | 1008.6 |
| 20260507112703 | 59 | 215 | 2.6 | 6.1 | 0.00 | 0.00 | 0.00 | 65 | 1008.6 |
| 20260507111803 | 60 | 206 | 2.6 | 6.1 | 0.00 | 0.00 | 0.00 | 64 | 1008.6 |
| 20260507110903 | 60 | 226 | 2.6 | 6.1 | 0.00 | 0.00 | 0.00 | 64 | 1008.6 |
| 20260507110003 | 61 | 219 | 2.6 | 6.1 | 0.00 | 0.00 | 0.00 | 60 | 1008.7 |
| 20260507105403 | 62 | 216 | 1.7 | 6.1 | 0.00 | 0.00 | 0.00 | 56 | 1008.5 |
| 20260507104504 | 61 | 209 | 1.7 | 6.1 | 0.00 | 0.00 | 0.00 | 54 | 1008.6 |
| 20260507103603 | 60 | 228 | 1.7 | 3.5 | 0.00 | 0.00 | 0.00 | 51 | 1008.7 |
| 20260507102703 | 58 | 216 | 1.7 | 3.5 | 0.00 | 0.00 | 0.00 | 52 | 1009.0 |
| 20260507101803 | 60 | 208 | 1.7 | 2.6 | 0.00 | 0.00 | 0.00 | 50 | 1008.8 |
| 20260507090903 | 58 | 216 | 0.9 | 6.1 | 0.00 | 0.00 | 0.00 | 57 | 1009.2 |
| 20260507090003 | 58 | 195 | 0.9 | 3.5 | 0.00 | 0.00 | 0.00 | 58 | 1009.2 |
| 20260507085423 | 57 | 213 | 0.9 | 3.5 | 0.00 | 0.00 | 0.00 | 60 | 1009.1 |
| 20260507084503 | 57 | 174 | 0.9 | 2.6 | 0.00 | 0.00 | 0.00 | 64 | 1009.1 |
| 20260507083602 | 55 | 199 | 0.9 | 3.5 | 0.00 | 0.00 | 0.00 | 65 | 1009.2 |
| 20260507082703 | 55 | 193 | 0.9 | 1.7 | 0.00 | 0.00 | 0.00 | 66 | 1009.3 |
| 20260507081802 | 55 | 181 | 0.9 | 3.5 | 0.00 | 0.00 | 0.00 | 66 | 1009.1 |
| 20260507080923 | 55 | 220 | 0.9 | 3.5 | 0.00 | 0.00 | 0.00 | 64 | 1009.2 |
| 20260507080003 | 57 | 178 | 0.9 | 2.6 | 0.00 | 0.00 | 0.00 | 60 | 1009.1 |
| 20260507075403 | 56 | 198 | 1.7 | 5.2 | 0.00 | 0.00 | 0.00 | 61 | 1009.1 |
| 20260507074503 | 56 | 230 | 0.9 | 3.5 | 0.00 | 0.00 | 0.00 | 62 | 1009.0 |
| 20260507073602 | 56 | 192 | 0.9 | 2.6 | 0.00 | 0.00 | 0.00 | 63 | 1009.1 |
| 20260507072702 | 55 | 190 | 0.9 | 2.6 | 0.00 | 0.00 | 0.00 | 64 | 1008.8 |
| 20260507071824 | 57 | 206 | 0.9 | 1.7 | 0.00 | 0.00 | 0.00 | 63 | 1008.7 |
| 20260507070903 | 55 | 178 | 0.9 | 2.6 | 0.00 | 0.00 | 0.00 | 67 | 1008.8 |
| 20260507070004 | 54 | 206 | 0.9 | 3.5 | 0.00 | 0.00 | 0.00 | 69 | 1008.7 |
| 20260507065403 | 54 | 212 | 0.9 | 3.5 | 0.00 | 0.00 | 0.00 | 70 | 1009.0 |
| 20260507064503 | 55 | 219 | 0.9 | 6.1 | 0.00 | 0.00 | 0.00 | 69 | 1008.7 |
| 20260507063603 | 54 | 193 | 0.9 | 3.5 | 0.00 | 0.00 | 0.00 | 70 | 1008.8 |
| 20260507062702 | 54 | 188 | 0.0 | 2.6 | 0.00 | 0.00 | 0.00 | 71 | 1009.0 |
| 20260507061803 | 52 | 191 | 0.0 | 1.7 | 0.00 | 0.00 | 0.00 | 75 | 1009.0 |
| 20260507060903 | 50 | 0 | 0.0 | 0.0 | 0.00 | 0.00 | 0.00 | 80 | 1008.9 |
| 20260507060003 | 48 | 189 | 0.0 | 0.9 | 0.00 | 0.00 | 0.00 | 83 | 1008.9 |
| 20260507055403 | 48 | 189 | 0.0 | 0.9 | 0.00 | 0.00 | 0.00 | 83 | 1008.9 |
| 20260507054524 | 48 | 0 | 0.0 | 0.0 | 0.00 | 0.00 | 0.00 | 83 | 1008.9 |
| 20260507053603 | 47 | 0 | 0.0 | 0.0 | 0.00 | 0.00 | 0.00 | 84 | 1009.0 |
| 20260507052703 | 47 | 186 | 0.0 | 0.9 | 0.00 | 0.00 | 0.00 | 84 | 1008.8 |
| 20260507051803 | 47 | 0 | 0.0 | 0.0 | 0.00 | 0.00 | 0.00 | 84 | 1008.9 |
| 20260507050903 | 47 | 0 | 0.0 | 0.0 | 0.00 | 0.00 | 0.00 | 84 | 1008.8 |
| 20260507050024 | 47 | 0 | 0.0 | 0.0 | 0.00 | 0.00 | 0.00 | 83 | 1008.7 |
| 20260507045403 | 47 | 0 | 0.0 | 0.0 | 0.00 | 0.00 | 0.00 | 83 | 1008.9 |
| 20260507044503 | 47 | 0 | 0.0 | 0.0 | 0.00 | 0.00 | 0.00 | 83 | 1008.8 |
| 20260507043603 | 47 | 0 | 0.0 | 0.0 | 0.00 | 0.00 | 0.00 | 84 | 1008.6 |
| 20260507042703 | 47 | 156 | 0.0 | 0.9 | 0.00 | 0.00 | 0.00 | 84 | 1008.8 |
| 20260507041803 | 47 | 0 | 0.0 | 0.0 | 0.00 | 0.00 | 0.00 | 84 | 1008.9 |
| 20260507040903 | 47 | 0 | 0.0 | 0.0 | 0.00 | 0.00 | 0.00 | 84 | 1008.8 |
| 20260507040003 | 47 | 0 | 0.0 | 0.0 | 0.00 | 0.00 | 0.00 | 84 | 1008.7 |
| 20260507035403 | 47 | 147 | 0.0 | 0.9 | 0.00 | 0.00 | 0.00 | 84 | 1008.9 |
| 20260507034503 | 47 | 149 | 0.0 | 0.9 | 0.00 | 0.00 | 0.00 | 84 | 1008.9 |
| 20260507033603 | 48 | 160 | 0.0 | 0.9 | 0.00 | 0.00 | 0.00 | 84 | 1009.0 |
| 20260507032703 | 48 | 172 | 0.0 | 0.9 | 0.00 | 0.00 | 0.00 | 84 | 1009.0 |
| 20260507031803 | 48 | 169 | 0.0 | 0.9 | 0.00 | 0.00 | 0.00 | 83 | 1008.8 |
| 20260507030903 | 48 | 166 | 0.0 | 1.7 | 0.00 | 0.00 | 0.00 | 83 | 1008.9 |
| 20260507030024 | 48 | 163 | 0.0 | 0.9 | 0.00 | 0.00 | 0.00 | 81 | 1008.9 |
| 20260507025403 | 49 | 161 | 0.0 | 0.9 | 0.00 | 0.00 | 0.00 | 79 | 1008.9 |
| 20260507024524 | 49 | 0 | 0.0 | 0.0 | 0.00 | 0.00 | 0.00 | 76 | 1008.8 |
| 20260507023603 | 49 | 156 | 0.0 | 0.9 | 0.00 | 0.00 | 0.00 | 76 | 1009.1 |
| 20260507022703 | 49 | 0 | 0.0 | 0.0 | 0.00 | 0.00 | 0.00 | 75 | 1008.7 |
| 20260507021803 | 49 | 56 | 0.0 | 0.9 | 0.00 | 0.00 | 0.00 | 75 | 1008.8 |
| 20260507020903 | 49 | 101 | 0.0 | 0.9 | 0.00 | 0.00 | 0.00 | 77 | 1008.8 |
| 20260507020024 | 49 | 177 | 0.0 | 0.9 | 0.00 | 0.00 | 0.00 | 79 | 1008.9 |
| 20260507015424 | 49 | 188 | 0.0 | 0.9 | 0.00 | 0.00 | 0.00 | 80 | 1008.8 |
| 20260507014503 | 49 | 191 | 0.0 | 0.9 | 0.00 | 0.00 | 0.00 | 81 | 1009.0 |
| 20260507013624 | 49 | 180 | 0.0 | 0.9 | 0.00 | 0.00 | 0.00 | 82 | 1008.9 |
| 20260507012724 | 49 | 167 | 0.0 | 0.9 | 0.00 | 0.00 | 0.00 | 82 | 1009.1 |
| 20260507011803 | 49 | 153 | 0.0 | 1.7 | 0.00 | 0.00 | 0.00 | 82 | 1009.0 |
| 20260507010903 | 48 | 162 | 0.0 | 0.9 | 0.00 | 0.00 | 0.00 | 83 | 1009.1 |
| 20260507010003 | 48 | 170 | 0.0 | 0.9 | 0.00 | 0.00 | 0.00 | 85 | 1009.1 |
| 20260507005403 | 48 | 168 | 0.0 | 0.9 | 0.00 | 0.00 | 0.00 | 86 | 1009.1 |
| 20260507004503 | 48 | 0 | 0.0 | 0.0 | 0.00 | 0.00 | 0.00 | 86 | 1009.1 |
| 20260507003603 | 48 | 154 | 0.0 | 0.9 | 0.00 | 0.00 | 0.00 | 86 | 1009.2 |
| 20260507002724 | 48 | 185 | 0.0 | 0.9 | 0.00 | 0.00 | 0.00 | 86 | 1009.2 |
| 20260507001803 | 48 | 110 | 0.0 | 0.9 | 0.00 | 0.00 | 0.00 | 86 | 1009.1 |